Time;durP1;ratioP1;P1;durP2;ratioP2;P2;SDS_P1;SDS_P2;PMS_P1;PMS_P2;Temp;Humidity;BMP_temperature;BMP_pressure;BME280_temperature;BME280_humidity;BME280_pressure;Samples;Min_cycle;Max_cycle;Signal;HPM_P1;HPM_P2
2021/05/23 00:00:53;;;;;;;4.87;3.90;;;14.70;99.90;;;;;;4157104;28;20037;-62
2021/05/23 00:02:57;;;;;;;8.07;4.10;;;14.60;99.90;;;;;;4154400;28;20099;-63
2021/05/23 00:04:58;;;;;;;5.60;3.63;;;14.50;99.90;;;;;;4156013;28;20037;-62
2021/05/23 00:06:59;;;;;;;7.03;4.83;;;14.40;99.90;;;;;;4155396;28;20041;-62
2021/05/23 00:09:01;;;;;;;9.20;4.63;;;14.30;99.90;;;;;;4156017;28;20037;-62
2021/05/23 00:11:07;;;;;;;9.13;4.53;;;14.10;99.90;;;;;;4156038;28;20899;-62
2021/05/23 00:13:10;;;;;;;6.97;4.07;;;14.10;99.90;;;;;;4155395;28;20037;-62
2021/05/23 00:15:15;;;;;;;8.57;4.87;;;14.00;99.90;;;;;;4155343;28;20037;-62
2021/05/23 00:17:16;;;;;;;11.67;5.03;;;14.00;99.90;;;;;;4155641;28;20076;-63
2021/05/23 00:19:18;;;;;;;9.67;4.13;;;14.00;99.90;;;;;;4155296;28;20049;-63
2021/05/23 00:21:21;;;;;;;9.57;4.83;;;13.90;99.90;;;;;;4155412;28;20033;-62
2021/05/23 00:23:22;;;;;;;6.23;4.00;;;13.90;99.90;;;;;;4155782;28;20021;-63
2021/05/23 00:25:24;;;;;;;7.80;4.43;;;14.00;99.90;;;;;;4155432;28;20029;-63
2021/05/23 00:27:25;;;;;;;6.13;3.83;;;14.00;99.90;;;;;;4155727;28;20033;-63
2021/05/23 00:29:26;;;;;;;7.97;4.47;;;14.00;99.90;;;;;;4154818;28;20089;-61
2021/05/23 00:31:27;;;;;;;7.07;4.53;;;13.90;99.90;;;;;;4155329;28;20624;-62
2021/05/23 00:33:29;;;;;;;8.67;5.10;;;13.90;99.90;;;;;;4153367;28;20709;-62
2021/05/23 00:35:30;;;;;;;9.83;5.13;;;13.90;99.90;;;;;;4155177;28;20481;-62
2021/05/23 00:37:31;;;;;;;7.33;5.17;;;13.90;99.90;;;;;;4155185;28;20367;-63
2021/05/23 00:39:32;;;;;;;6.03;4.27;;;13.90;99.90;;;;;;4155098;28;20468;-63
2021/05/23 00:41:33;;;;;;;6.77;4.50;;;13.80;99.90;;;;;;4155501;28;20037;-62
2021/05/23 00:43:35;;;;;;;6.43;4.57;;;13.80;99.90;;;;;;4155054;28;20037;-62
2021/05/23 00:45:36;;;;;;;7.67;4.53;;;13.80;99.90;;;;;;4155043;28;20021;-63
2021/05/23 00:47:38;;;;;;;6.90;4.63;;;13.80;99.90;;;;;;4153740;28;20499;-63
2021/05/23 00:49:39;;;;;;;6.67;4.50;;;13.80;99.90;;;;;;4155537;28;20482;-62
2021/05/23 00:51:41;;;;;;;6.67;4.60;;;13.80;99.90;;;;;;4154707;28;20030;-62
2021/05/23 00:53:42;;;;;;;13.80;4.60;;;13.70;99.90;;;;;;4154870;28;20489;-63
2021/05/23 00:55:43;;;;;;;7.00;4.73;;;13.70;99.90;;;;;;4154352;28;20042;-62
2021/05/23 00:57:44;;;;;;;9.53;4.13;;;13.70;99.90;;;;;;4153844;28;20029;-62
2021/05/23 00:59:46;;;;;;;6.63;4.53;;;13.70;99.90;;;;;;4154680;28;20037;-61
2021/05/23 01:01:53;;;;;;;5.33;3.67;;;13.70;99.90;;;;;;4155509;28;20025;-63
2021/05/23 01:03:56;;;;;;;7.53;4.07;;;13.60;99.90;;;;;;4154557;28;20382;-62
2021/05/23 01:06:00;;;;;;;9.67;3.97;;;13.60;99.90;;;;;;4154004;28;20046;-62
2021/05/23 01:08:01;;;;;;;8.37;4.60;;;13.60;99.90;;;;;;4158012;28;20076;-62
2021/05/23 01:10:08;;;;;;;8.93;3.93;;;13.50;99.90;;;;;;4158398;28;20053;-62
2021/05/23 01:12:21;;;;;;;5.57;4.00;;;13.50;99.90;;;;;;4158490;28;20037;-62
2021/05/23 01:14:47;;;;;;;6.83;3.80;;;13.50;99.90;;;;;;4158586;28;20026;-61
2021/05/23 01:16:52;;;;;;;8.23;4.07;;;13.60;99.90;;;;;;4157174;28;20041;-62
2021/05/23 01:19:21;;;;;;;10.50;4.03;;;13.60;99.90;;;;;;4158762;28;20482;-62
2021/05/23 01:21:25;;;;;;;9.10;4.10;;;13.60;99.90;;;;;;4157966;28;20025;-61
2021/05/23 01:23:50;;;;;;;4.60;3.47;;;13.60;99.90;;;;;;4158632;28;20052;-61
2021/05/23 01:25:56;;;;;;;5.00;4.33;;;13.70;99.90;;;;;;4157812;28;20029;-61
2021/05/23 01:27:57;;;;;;;8.07;4.03;;;13.70;99.90;;;;;;4158461;28;20033;-62
2021/05/23 01:29:59;;;;;;;7.47;4.50;;;13.70;99.90;;;;;;4157540;28;20029;-62
2021/05/23 01:32:00;;;;;;;8.73;4.80;;;13.70;99.90;;;;;;4158019;28;20975;-61
2021/05/23 01:34:03;;;;;;;5.17;4.07;;;13.60;99.90;;;;;;4157589;28;20045;-60
2021/05/23 01:36:05;;;;;;;9.73;4.87;;;13.60;99.90;;;;;;4158543;28;20083;-62
2021/05/23 01:38:11;;;;;;;8.37;4.73;;;13.60;99.90;;;;;;4157697;28;20359;-64
2021/05/23 01:40:14;;;;;;;9.93;5.70;;;13.60;99.90;;;;;;4158081;28;20030;-65
2021/05/23 01:42:16;;;;;;;9.40;5.03;;;13.60;99.90;;;;;;4157659;28;20033;-67
2021/05/23 01:44:17;;;;;;;9.93;5.87;;;13.50;99.90;;;;;;4157898;28;20029;-68
2021/05/23 01:46:19;;;;;;;10.10;5.60;;;13.40;99.90;;;;;;4157506;28;20103;-66
2021/05/23 01:48:20;;;;;;;13.60;5.53;;;13.40;99.90;;;;;;4157302;28;20053;-64
2021/05/23 01:50:21;;;;;;;9.30;5.70;;;13.40;99.90;;;;;;4156501;28;20041;-65
2021/05/23 01:52:22;;;;;;;11.37;5.30;;;13.40;99.90;;;;;;4157793;28;20565;-61
2021/05/23 01:54:23;;;;;;;9.30;5.23;;;13.40;99.90;;;;;;4157854;28;20029;-62
2021/05/23 01:56:25;;;;;;;18.77;5.93;;;13.40;99.90;;;;;;4157517;28;20782;-61
2021/05/23 01:58:26;;;;;;;9.33;5.60;;;13.40;99.90;;;;;;4157687;28;20486;-61
2021/05/23 02:00:48;;;;;;;11.07;5.23;;;13.40;99.90;;;;;;4156726;28;20045;-62
2021/05/23 02:02:49;;;;;;;11.93;5.07;;;13.30;99.90;;;;;;4157521;28;20038;-62
2021/05/23 02:04:50;;;;;;;6.30;5.53;;;13.30;99.90;;;;;;4156991;28;20033;-61
2021/05/23 02:06:52;;;;;;;5.10;4.60;;;13.30;99.90;;;;;;4157456;28;20052;-64
2021/05/23 02:08:53;;;;;;;9.53;4.63;;;13.30;99.90;;;;;;4156702;28;20111;-65
2021/05/23 02:10:58;;;;;;;7.20;4.70;;;13.30;99.90;;;;;;4157471;28;20095;-65
2021/05/23 02:13:04;;;;;;;5.57;4.07;;;13.30;99.90;;;;;;4157758;28;20017;-69
2021/05/23 02:15:07;;;;;;;7.20;3.70;;;13.30;99.90;;;;;;4157295;28;20045;-67
2021/05/23 02:17:08;;;;;;;7.77;3.70;;;13.20;99.90;;;;;;4156695;28;20115;-67
2021/05/23 02:19:09;;;;;;;5.53;3.60;;;13.20;99.90;;;;;;4156810;28;20034;-66
2021/05/23 02:21:12;;;;;;;9.57;3.33;;;13.10;99.90;;;;;;4155597;28;20041;-67
2021/05/23 02:23:16;;;;;;;5.67;3.10;;;13.10;99.90;;;;;;4157398;28;20072;-66
2021/05/23 02:25:19;;;;;;;6.43;3.13;;;13.00;99.90;;;;;;4156904;28;20026;-67
2021/05/23 02:27:20;;;;;;;5.03;3.53;;;12.80;99.90;;;;;;4156770;28;20057;-66
2021/05/23 02:29:21;;;;;;;4.37;3.47;;;12.80;99.90;;;;;;4154723;28;20029;-69
2021/05/23 02:31:22;;;;;;;5.53;3.80;;;12.80;99.90;;;;;;4155366;28;20060;-68
2021/05/23 02:33:26;;;;;;;10.73;3.20;;;12.80;99.90;;;;;;4156954;28;20049;-68
2021/05/23 02:35:29;;;;;;;3.90;3.30;;;12.90;99.90;;;;;;4156463;28;20038;-64
2021/05/23 02:37:31;;;;;;;5.53;3.17;;;12.80;99.90;;;;;;4157004;28;20053;-69
2021/05/23 02:39:33;;;;;;;9.40;3.37;;;12.90;99.90;;;;;;4156299;28;20041;-69
2021/05/23 02:41:34;;;;;;;5.17;3.27;;;12.90;99.90;;;;;;4157187;28;21236;-67
2021/05/23 02:43:35;;;;;;;4.63;3.33;;;12.90;99.90;;;;;;4156719;28;20441;-66
2021/05/23 02:45:37;;;;;;;5.23;3.10;;;13.00;99.90;;;;;;4156877;28;20099;-65
2021/05/23 02:47:39;;;;;;;4.83;3.33;;;13.00;99.90;;;;;;4156272;28;20572;-64
2021/05/23 02:49:43;;;;;;;5.47;3.10;;;13.10;99.90;;;;;;4156619;28;20049;-67
2021/05/23 02:51:44;;;;;;;5.57;3.23;;;13.10;99.90;;;;;;4156092;28;20033;-63
2021/05/23 02:53:45;;;;;;;7.47;3.53;;;13.10;99.90;;;;;;4156851;28;20033;-62
2021/05/23 02:55:49;;;;;;;4.27;3.70;;;13.10;99.90;;;;;;4156491;28;20045;-62
2021/05/23 02:57:51;;;;;;;9.80;4.87;;;13.10;99.90;;;;;;4156536;28;20033;-62
2021/05/23 02:59:52;;;;;;;8.50;4.17;;;13.00;99.90;;;;;;4156213;28;20107;-63
2021/05/23 03:01:53;;;;;;;10.37;3.87;;;13.00;99.90;;;;;;4156552;28;20106;-62
2021/05/23 03:03:54;;;;;;;8.43;3.70;;;13.10;99.90;;;;;;4157070;28;20025;-61
2021/05/23 03:05:55;;;;;;;7.37;3.80;;;13.10;99.90;;;;;;4156211;28;20571;-61
2021/05/23 03:07:58;;;;;;;5.23;4.07;;;13.20;99.90;;;;;;4156676;28;20041;-61
2021/05/23 03:09:59;;;;;;;6.70;4.70;;;13.10;99.90;;;;;;4154808;28;20044;-63
2021/05/23 03:12:00;;;;;;;8.33;4.37;;;13.10;99.90;;;;;;4156337;28;20042;-61
2021/05/23 03:14:02;;;;;;;6.43;4.27;;;13.00;99.90;;;;;;4155864;28;20866;-62
2021/05/23 03:16:04;;;;;;;6.90;4.77;;;13.00;99.90;;;;;;4155382;28;20134;-62
2021/05/23 03:18:05;;;;;;;8.73;5.30;;;12.90;99.90;;;;;;4155678;28;20041;-63
2021/05/23 03:20:08;;;;;;;6.57;4.40;;;12.90;99.90;;;;;;4156344;28;20064;-62
2021/05/23 03:22:09;;;;;;;5.30;4.20;;;12.90;99.90;;;;;;4155833;28;20429;-62
2021/05/23 03:24:10;;;;;;;6.27;4.53;;;12.90;99.90;;;;;;4155971;28;20095;-62
2021/05/23 03:26:11;;;;;;;8.03;3.90;;;12.90;99.90;;;;;;4156040;28;20033;-61
2021/05/23 03:28:13;;;;;;;19.77;4.73;;;12.90;99.90;;;;;;4156242;28;20041;-61
2021/05/23 03:30:18;;;;;;;8.43;4.83;;;12.90;99.90;;;;;;4156138;28;20033;-61
2021/05/23 03:32:19;;;;;;;6.80;4.30;;;12.80;99.90;;;;;;4155341;28;20091;-62
2021/05/23 03:34:20;;;;;;;8.23;4.47;;;12.80;99.90;;;;;;4155683;28;20046;-61
2021/05/23 03:36:21;;;;;;;6.23;4.70;;;12.80;99.90;;;;;;4156039;28;20091;-61
2021/05/23 03:38:23;;;;;;;8.10;5.10;;;12.90;99.90;;;;;;4156363;28;20087;-61
2021/05/23 03:40:24;;;;;;;5.53;3.30;;;12.80;99.90;;;;;;4155821;28;20474;-62
2021/05/23 03:42:25;;;;;;;3.50;3.10;;;12.80;99.90;;;;;;4155281;28;20033;-61
2021/05/23 03:44:26;;;;;;;3.97;2.90;;;12.80;99.90;;;;;;4156013;28;20057;-62
2021/05/23 03:46:28;;;;;;;3.63;3.33;;;12.70;99.90;;;;;;4156482;28;20033;-62
2021/05/23 03:48:29;;;;;;;5.37;3.23;;;12.70;99.90;;;;;;4155807;28;20486;-62
2021/05/23 03:50:30;;;;;;;4.20;3.57;;;12.60;99.90;;;;;;4156153;28;20083;-62
2021/05/23 03:52:31;;;;;;;4.30;3.30;;;12.60;99.90;;;;;;4155335;28;20333;-68
2021/05/23 03:54:32;;;;;;;5.43;3.83;;;12.60;99.90;;;;;;4156153;28;20042;-65
2021/05/23 03:56:33;;;;;;;5.30;4.47;;;12.60;99.90;;;;;;4155424;28;20038;-69
2021/05/23 03:58:35;;;;;;;6.27;3.87;;;12.70;99.90;;;;;;4155400;28;20111;-67
2021/05/23 04:00:36;;;;;;;6.33;4.00;;;12.80;99.90;;;;;;4155137;28;20025;-64
2021/05/23 04:02:37;;;;;;;8.57;4.63;;;12.80;99.90;;;;;;4155881;28;20107;-67
2021/05/23 04:04:46;;;;;;;5.10;3.93;;;12.90;99.90;;;;;;4155170;28;20037;-67
2021/05/23 04:06:49;;;;;;;4.50;3.77;;;12.90;99.90;;;;;;4155593;28;20555;-61
2021/05/23 04:08:50;;;;;;;5.13;3.90;;;13.00;99.90;;;;;;4155293;28;21072;-61
2021/05/23 04:11:04;;;;;;;3.67;3.37;;;13.10;99.90;;;;;;4155700;28;20083;-62
2021/05/23 04:13:08;;;;;;;4.50;4.10;;;13.20;99.90;;;;;;4155823;28;20512;-61
2021/05/23 04:15:10;;;;;;;5.00;3.27;;;13.30;99.90;;;;;;4155138;28;20033;-60
2021/05/23 04:17:11;;;;;;;6.50;4.00;;;13.40;99.90;;;;;;4155692;28;20144;-61
2021/05/23 04:19:12;;;;;;;4.73;3.37;;;13.50;99.90;;;;;;4155072;28;20046;-61
2021/05/23 04:21:14;;;;;;;4.23;3.80;;;13.50;99.90;;;;;;4155367;28;20042;-62
2021/05/23 04:23:15;;;;;;;4.67;3.40;;;13.60;99.90;;;;;;4153789;28;20091;-66
2021/05/23 04:25:18;;;;;;;3.57;3.13;;;13.60;99.90;;;;;;4155488;28;20037;-67
2021/05/23 04:27:20;;;;;;;3.63;2.93;;;13.70;99.90;;;;;;4155197;28;20433;-65
2021/05/23 04:29:21;;;;;;;4.03;3.60;;;13.80;99.90;;;;;;4155594;28;20449;-67
2021/05/23 04:31:22;;;;;;;10.23;4.40;;;13.80;99.90;;;;;;4154448;28;20033;-64
2021/05/23 04:33:24;;;;;;;8.03;4.17;;;13.90;99.90;;;;;;4155191;28;20071;-67
2021/05/23 04:35:26;;;;;;;5.33;3.73;;;13.80;99.90;;;;;;4153485;28;20045;-65
2021/05/23 04:37:27;;;;;;;4.97;3.90;;;13.80;99.90;;;;;;4155457;28;20034;-61
2021/05/23 04:39:28;;;;;;;7.00;4.57;;;13.80;99.90;;;;;;4154644;28;20037;-62
2021/05/23 04:41:29;;;;;;;11.20;4.70;;;13.70;99.90;;;;;;4154453;28;20044;-62
2021/05/23 04:43:31;;;;;;;6.40;4.43;;;13.70;99.90;;;;;;4155500;28;20041;-61
2021/05/23 04:45:32;;;;;;;8.93;5.23;;;13.70;99.90;;;;;;4155021;28;20022;-62
2021/05/23 04:47:35;;;;;;;6.20;5.03;;;13.80;99.90;;;;;;4154804;28;20041;-61
2021/05/23 04:49:39;;;;;;;10.50;5.97;;;13.80;99.90;;;;;;4154524;28;20045;-62
2021/05/23 04:51:41;;;;;;;14.43;6.20;;;13.80;99.90;;;;;;4155091;28;20052;-62
2021/05/23 04:53:42;;;;;;;7.63;6.47;;;13.90;99.90;;;;;;4154479;28;20075;-66
2021/05/23 04:55:43;;;;;;;9.63;5.37;;;14.10;99.90;;;;;;4154636;28;20109;-68
2021/05/23 04:57:45;;;;;;;12.80;5.60;;;14.40;99.90;;;;;;4154346;28;20099;-68
2021/05/23 04:59:47;;;;;;;7.13;5.03;;;14.90;99.90;;;;;;4154710;28;20042;-68
2021/05/23 05:01:48;;;;;;;8.33;6.03;;;15.40;99.90;;;;;;4154289;28;20708;-65
2021/05/23 05:03:49;;;;;;;9.90;5.90;;;15.80;99.90;;;;;;4155016;28;20068;-68
2021/05/23 05:05:50;;;;;;;10.50;6.77;;;16.10;99.90;;;;;;4154097;28;20042;-68
2021/05/23 05:07:52;;;;;;;11.83;6.37;;;16.40;99.90;;;;;;4155284;28;20087;-62
2021/05/23 05:09:53;;;;;;;10.93;4.90;;;16.60;99.90;;;;;;4155071;28;20029;-61
2021/05/23 05:11:54;;;;;;;11.82;6.35;;;16.60;99.90;;;;;;4155117;28;20033;-63
2021/05/23 05:13:55;;;;;;;10.02;5.50;;;17.00;99.90;;;;;;4154821;28;20034;-61
2021/05/23 05:15:56;;;;;;;11.95;5.85;;;17.40;99.90;;;;;;4154597;28;20114;-62
2021/05/23 05:17:57;;;;;;;7.00;4.53;;;18.30;99.90;;;;;;4155246;28;20041;-62
2021/05/23 05:19:59;;;;;;;19.13;5.20;;;18.90;99.90;;;;;;4154914;28;20083;-61
2021/05/23 05:22:01;;;;;;;28.27;6.70;;;19.20;99.90;;;;;;4154809;28;20033;-60
2021/05/23 05:24:03;;;;;;;20.00;6.63;;;19.50;99.90;;;;;;4153741;28;20068;-62
2021/05/23 05:26:04;;;;;;;15.27;5.40;;;20.30;99.90;;;;;;4154520;28;20076;-62
2021/05/23 05:28:07;;;;;;;17.42;4.72;;;20.90;99.90;;;;;;4154110;28;20470;-61
2021/05/23 05:30:09;;;;;;;14.40;5.00;;;21.30;99.90;;;;;;4154010;28;20072;-61
2021/05/23 05:32:10;;;;;;;8.00;4.03;;;21.90;99.90;;;;;;4153778;28;20911;-63
2021/05/23 05:34:11;;;;;;;8.77;4.35;;;22.10;99.90;;;;;;4154750;28;20058;-62
2021/05/23 05:36:12;;;;;;;17.95;4.10;;;22.30;99.90;;;;;;4154109;28;20088;-62
2021/05/23 05:38:14;;;;;;;13.80;3.83;;;22.80;99.90;;;;;;4154329;28;20084;-66
2021/05/23 05:40:15;;;;;;;13.13;3.70;;;22.90;98.80;;;;;;4154548;28;20095;-66
2021/05/23 05:42:16;;;;;;;7.85;4.13;;;22.70;98.20;;;;;;4154537;28;20057;-65
2021/05/23 05:44:17;;;;;;;12.45;3.63;;;22.50;98.30;;;;;;4152855;28;20398;-65
2021/05/23 05:46:19;;;;;;;10.85;3.53;;;22.10;98.40;;;;;;4154606;28;20075;-67
2021/05/23 05:48:22;;;;;;;11.32;3.35;;;21.50;98.90;;;;;;4154397;28;20080;-66
2021/05/23 05:50:23;;;;;;;10.85;3.13;;;20.80;99.90;;;;;;4153917;28;20053;-68
2021/05/23 05:52:24;;;;;;;23.17;12.18;;;20.20;99.90;;;;;;4154376;28;20479;-63
2021/05/23 05:54:25;;;;;;;5.55;2.58;;;19.60;99.90;;;;;;4157359;28;20029;-63
2021/05/23 05:56:26;;;;;;;3.95;2.60;;;19.50;99.90;;;;;;4157750;28;20038;-63
2021/05/23 05:58:27;;;;;;;4.70;2.38;;;19.50;99.90;;;;;;4157116;28;20041;-64
2021/05/23 06:00:29;;;;;;;2.50;2.15;;;19.40;99.90;;;;;;4157941;28;20577;-63
2021/05/23 06:02:30;;;;;;;7.20;2.92;;;19.30;99.90;;;;;;4157087;28;20053;-64
2021/05/23 06:04:31;;;;;;;5.03;3.33;;;19.10;99.90;;;;;;4157426;28;20041;-64
2021/05/23 06:06:32;;;;;;;3.45;2.80;;;18.90;99.90;;;;;;4156693;28;20099;-64
2021/05/23 06:08:34;;;;;;;6.65;2.67;;;18.60;99.90;;;;;;4156983;28;21175;-63
2021/05/23 06:10:35;;;;;;;4.60;2.65;;;18.40;99.90;;;;;;4157119;28;20421;-63
2021/05/23 06:12:36;;;;;;;4.18;2.85;;;18.40;99.90;;;;;;4156875;28;20543;-63
2021/05/23 06:14:38;;;;;;;5.43;2.60;;;18.30;99.90;;;;;;4155865;28;20091;-62
2021/05/23 06:16:39;;;;;;;3.65;3.00;;;18.20;99.90;;;;;;4156760;28;20047;-62
2021/05/23 06:18:41;;;;;;;5.47;3.05;;;18.20;99.90;;;;;;4157242;28;20042;-64
2021/05/23 06:20:42;;;;;;;3.60;2.65;;;18.00;99.90;;;;;;4157063;28;20025;-62
2021/05/23 06:22:43;;;;;;;5.68;3.58;;;17.80;99.90;;;;;;4157449;28;20092;-65
2021/05/23 06:24:44;;;;;;;4.75;3.42;;;17.80;99.90;;;;;;4156830;28;20045;-63
2021/05/23 06:26:46;;;;;;;6.68;3.25;;;17.70;99.90;;;;;;4157221;28;20437;-62
2021/05/23 06:28:47;;;;;;;5.88;2.90;;;17.60;99.90;;;;;;4156224;28;20088;-61
2021/05/23 06:30:48;;;;;;;5.97;3.53;;;17.60;99.90;;;;;;4157228;28;20107;-62
2021/05/23 06:32:49;;;;;;;6.80;3.55;;;17.60;99.90;;;;;;4155874;28;20509;-63
2021/05/23 06:34:50;;;;;;;4.47;3.50;;;17.60;99.90;;;;;;4156783;28;20030;-62
2021/05/23 06:36:52;;;;;;;3.53;3.20;;;17.60;99.90;;;;;;4156956;28;20038;-63
2021/05/23 06:38:53;;;;;;;5.50;3.03;;;17.70;99.90;;;;;;4157326;28;20091;-68
2021/05/23 06:40:54;;;;;;;5.70;3.30;;;17.60;99.90;;;;;;4156654;28;20029;-68
2021/05/23 06:42:55;;;;;;;6.30;3.28;;;17.60;99.90;;;;;;4156878;28;20079;-66
2021/05/23 06:44:57;;;;;;;10.45;2.90;;;17.50;99.90;;;;;;4154575;28;20068;-64
2021/05/23 06:46:58;;;;;;;3.55;2.88;;;17.50;99.90;;;;;;4154850;28;20041;-68
2021/05/23 06:48:59;;;;;;;2.55;2.35;;;17.50;99.90;;;;;;4156849;28;20888;-65
2021/05/23 06:51:01;;;;;;;2.58;2.10;;;17.50;99.90;;;;;;4156170;28;20030;-65
2021/05/23 06:53:02;;;;;;;5.18;2.17;;;17.50;99.90;;;;;;4156261;28;20042;-68
2021/05/23 06:55:04;;;;;;;2.28;1.33;;;17.70;99.90;;;;;;4156326;28;20551;-66
2021/05/23 06:57:06;;;;;;;2.90;1.55;;;17.80;99.90;;;;;;4156396;28;20021;-64
2021/05/23 06:59:07;;;;;;;3.63;1.30;;;17.90;99.90;;;;;;4156243;28;20079;-62
2021/05/23 07:01:09;;;;;;;5.40;1.30;;;18.00;99.90;;;;;;4156325;28;20421;-65
2021/05/23 07:03:11;;;;;;;1.27;1.00;;;18.20;99.90;;;;;;4154857;28;20084;-68
2021/05/23 07:05:13;;;;;;;1.13;0.88;;;18.30;99.90;;;;;;4156480;28;20052;-67
2021/05/23 07:07:14;;;;;;;3.92;0.95;;;18.50;99.90;;;;;;4155808;28;20087;-65
2021/05/23 07:09:16;;;;;;;1.13;0.82;;;18.70;99.90;;;;;;4155056;28;20041;-62
2021/05/23 07:11:17;;;;;;;1.65;1.52;;;18.90;99.90;;;;;;4155635;28;20053;-62
2021/05/23 07:13:19;;;;;;;0.98;0.70;;;19.10;99.90;;;;;;4156793;28;20025;-62
2021/05/23 07:15:21;;;;;;;2.40;0.80;;;19.20;99.90;;;;;;4156489;28;20075;-62
2021/05/23 07:17:22;;;;;;;3.15;0.80;;;19.30;99.90;;;;;;4156384;28;20071;-61
2021/05/23 07:19:23;;;;;;;1.40;0.80;;;19.30;99.90;;;;;;4154549;28;20041;-62
2021/05/23 07:21:24;;;;;;;1.52;1.00;;;19.50;99.30;;;;;;4155286;28;20875;-61
2021/05/23 07:23:26;;;;;;;2.10;0.70;;;19.60;99.10;;;;;;4156430;28;20465;-62
2021/05/23 07:25:27;;;;;;;1.20;0.77;;;19.70;98.60;;;;;;4155638;28;20021;-62
2021/05/23 07:27:28;;;;;;;0.75;0.70;;;19.90;97.80;;;;;;4156238;28;20482;-62
2021/05/23 07:29:30;;;;;;;5.78;1.20;;;20.00;97.50;;;;;;4155608;28;20042;-61
2021/05/23 07:31:32;;;;;;;4.00;1.00;;;20.10;97.70;;;;;;4155738;28;20103;-62
2021/05/23 07:33:33;;;;;;;0.93;0.60;;;20.00;97.30;;;;;;4155701;28;20037;-63
2021/05/23 07:35:34;;;;;;;1.80;0.90;;;19.70;97.60;;;;;;4156136;28;20041;-62
2021/05/23 07:37:37;;;;;;;3.95;1.23;;;19.70;97.80;;;;;;4155383;28;20104;-63
2021/05/23 07:39:38;;;;;;;3.00;1.05;;;19.60;98.20;;;;;;4155913;28;20868;-61
2021/05/23 07:41:39;;;;;;;2.38;0.88;;;19.70;98.10;;;;;;4155211;28;20466;-63
2021/05/23 07:43:40;;;;;;;1.83;0.90;;;20.00;98.00;;;;;;4155958;28;20489;-62
2021/05/23 07:45:41;;;;;;;0.77;0.57;;;20.10;97.50;;;;;;4155701;28;20501;-62
2021/05/23 07:47:42;;;;;;;1.38;0.73;;;20.00;97.30;;;;;;4155168;28;20430;-63
2021/05/23 07:49:44;;;;;;;2.05;1.00;;;20.10;97.20;;;;;;4155508;28;20087;-61
2021/05/23 07:51:45;;;;;;;0.98;0.70;;;20.20;97.20;;;;;;4155476;28;20107;-63
2021/05/23 07:53:46;;;;;;;1.00;0.70;;;20.10;97.30;;;;;;4155266;28;20444;-62
2021/05/23 07:55:48;;;;;;;1.95;0.80;;;20.20;97.00;;;;;;4155108;28;20079;-63
2021/05/23 07:57:49;;;;;;;0.90;0.73;;;20.20;97.10;;;;;;4155951;28;20064;-64
2021/05/23 07:59:50;;;;;;;2.85;0.80;;;20.40;96.60;;;;;;4154553;28;20045;-63
2021/05/23 08:01:51;;;;;;;2.65;1.15;;;20.60;96.40;;;;;;4155538;28;20712;-63
2021/05/23 08:03:52;;;;;;;1.98;0.90;;;20.90;96.00;;;;;;4154534;28;20056;-63
2021/05/23 08:05:54;;;;;;;1.20;0.90;;;21.10;95.50;;;;;;4155317;28;20049;-63
2021/05/23 08:07:56;;;;;;;3.92;2.10;;;20.90;95.30;;;;;;4153439;28;20038;-63
2021/05/23 08:09:57;;;;;;;5.93;1.60;;;21.20;95.20;;;;;;4155637;28;20490;-63
2021/05/23 08:11:58;;;;;;;1.20;0.90;;;21.30;94.80;;;;;;4155034;28;20935;-63
2021/05/23 08:13:59;;;;;;;1.70;0.80;;;21.40;94.60;;;;;;4155297;28;20064;-63
2021/05/23 08:16:01;;;;;;;2.15;0.95;;;21.40;94.30;;;;;;4154796;28;20025;-62
2021/05/23 08:18:02;;;;;;;1.30;0.95;;;21.50;93.80;;;;;;4155589;28;20040;-63
2021/05/23 08:20:04;;;;;;;3.65;1.02;;;21.70;93.50;;;;;;4155410;28;20025;-61
2021/05/23 08:22:05;;;;;;;3.15;1.00;;;22.00;93.40;;;;;;4153659;28;20045;-63
2021/05/23 08:24:08;;;;;;;0.73;0.68;;;22.20;91.80;;;;;;4155261;28;20097;-63
2021/05/23 08:26:10;;;;;;;0.95;0.82;;;22.20;91.40;;;;;;4154552;28;20029;-68
2021/05/23 08:28:12;;;;;;;0.75;0.70;;;22.20;90.30;;;;;;4154729;28;20176;-62
2021/05/23 08:30:14;;;;;;;1.67;0.88;;;22.10;89.80;;;;;;4154217;28;20556;-64
2021/05/23 08:32:16;;;;;;;1.05;0.80;;;22.30;89.40;;;;;;4154612;28;20042;-64
2021/05/23 08:34:17;;;;;;;0.70;0.63;;;22.20;86.90;;;;;;4154452;28;20029;-66
2021/05/23 08:36:18;;;;;;;1.30;1.08;;;22.10;86.30;;;;;;4155225;28;20033;-65
2021/05/23 08:38:19;;;;;;;2.80;1.13;;;22.00;86.00;;;;;;4154918;28;20037;-63
2021/05/23 08:40:20;;;;;;;1.40;0.90;;;21.90;88.10;;;;;;4154956;28;20021;-63
2021/05/23 08:42:22;;;;;;;1.58;1.00;;;22.10;88.50;;;;;;4154256;28;20904;-62
2021/05/23 08:44:23;;;;;;;5.50;2.10;;;22.00;88.00;;;;;;4154766;28;20432;-62
2021/05/23 08:46:32;;;;;;;1.35;0.75;;;21.90;86.70;;;;;;4154744;28;20083;-61
2021/05/23 08:48:34;;;;;;;1.98;1.02;;;21.80;86.60;;;;;;4155145;28;20715;-61
2021/05/23 08:50:35;;;;;;;1.13;0.75;;;21.60;87.20;;;;;;4154504;28;20030;-62
2021/05/23 08:52:37;;;;;;;2.92;1.08;;;21.60;87.50;;;;;;4154402;28;20106;-62
2021/05/23 08:54:41;;;;;;;3.28;1.08;;;21.80;87.50;;;;;;4154438;28;20049;-63
2021/05/23 08:56:45;;;;;;;1.25;0.88;;;21.70;86.40;;;;;;4154327;28;20084;-62
2021/05/23 08:58:46;;;;;;;2.80;0.73;;;21.70;86.30;;;;;;4154051;28;20042;-62
2021/05/23 09:00:47;;;;;;;3.08;0.70;;;21.50;86.10;;;;;;4154811;28;20501;-61
2021/05/23 09:03:00;;;;;;;4.78;0.93;;;21.40;87.00;;;;;;4154543;28;20041;-62
2021/05/23 09:05:02;;;;;;;0.90;0.55;;;21.50;85.60;;;;;;4153808;28;20708;-64
2021/05/23 09:07:04;;;;;;;0.80;0.60;;;21.60;85.90;;;;;;4154544;28;20421;-62
2021/05/23 09:09:10;;;;;;;2.17;1.10;;;21.70;85.80;;;;;;4154435;28;20095;-62
2021/05/23 09:11:11;;;;;;;5.25;0.70;;;21.90;85.20;;;;;;4153824;28;20095;-67
2021/05/23 09:13:14;;;;;;;2.53;0.90;;;22.10;84.10;;;;;;4153726;28;20095;-68
2021/05/23 09:15:15;;;;;;;1.45;0.73;;;22.20;83.00;;;;;;4155288;28;20052;-69
2021/05/23 09:17:26;;;;;;;1.23;0.50;;;22.20;82.90;;;;;;4154183;28;20649;-63
2021/05/23 09:19:38;;;;;;;2.00;0.50;;;22.30;82.30;;;;;;4153879;28;20046;-67
2021/05/23 09:21:39;;;;;;;1.15;0.50;;;22.40;82.20;;;;;;4154160;28;20107;-66
2021/05/23 09:24:08;;;;;;;1.98;0.60;;;22.40;81.60;;;;;;4154856;28;20491;-67
2021/05/23 09:26:23;;;;;;;1.02;0.80;;;22.40;79.60;;;;;;4153567;28;20037;-65
2021/05/23 09:28:29;;;;;;;3.40;0.55;;;22.30;80.30;;;;;;4157697;28;20072;-67
2021/05/23 09:30:33;;;;;;;2.95;0.77;;;22.20;79.20;;;;;;4157215;28;20033;-68
2021/05/23 09:32:40;;;;;;;2.03;1.10;;;22.20;80.60;;;;;;4157976;28;20033;-65
2021/05/23 09:34:41;;;;;;;1.38;0.70;;;22.20;80.20;;;;;;4157197;28;20045;-64
2021/05/23 09:36:44;;;;;;;1.08;0.63;;;22.30;81.20;;;;;;4157713;28;20037;-68
2021/05/23 09:38:59;;;;;;;2.10;0.60;;;22.40;80.90;;;;;;4157330;28;20037;-66
2021/05/23 09:41:00;;;;;;;3.83;0.80;;;22.50;81.30;;;;;;4156773;28;20442;-64
2021/05/23 09:43:03;;;;;;;0.60;0.60;;;22.60;81.00;;;;;;4156667;28;20577;-63
2021/05/23 09:45:04;;;;;;;3.53;1.02;;;22.50;80.30;;;;;;4157022;28;20091;-65
2021/05/23 09:47:12;;;;;;;1.42;1.10;;;22.60;80.40;;;;;;4157143;28;20091;-64
2021/05/23 09:49:16;;;;;;;0.85;0.63;;;22.50;81.00;;;;;;4157246;28;20049;-66
2021/05/23 09:51:18;;;;;;;1.30;0.95;;;22.50;81.10;;;;;;4156747;28;20099;-66
2021/05/23 09:53:21;;;;;;;2.45;1.00;;;22.40;81.10;;;;;;4157016;28;20099;-67
2021/05/23 09:55:22;;;;;;;0.70;0.47;;;22.40;80.60;;;;;;4157118;28;20101;-62
2021/05/23 09:57:25;;;;;;;4.22;0.70;;;22.40;80.80;;;;;;4157220;28;20037;-63
2021/05/23 09:59:28;;;;;;;3.00;0.70;;;22.40;81.40;;;;;;4156947;28;20037;-62
2021/05/23 10:01:33;;;;;;;0.50;0.43;;;22.50;82.00;;;;;;4156561;28;20485;-62
2021/05/23 10:03:37;;;;;;;1.60;0.68;;;22.70;80.40;;;;;;4156723;28;20119;-59
2021/05/23 10:05:44;;;;;;;2.25;0.70;;;22.90;79.70;;;;;;4156564;28;20030;-63
2021/05/23 10:07:46;;;;;;;1.23;0.70;;;22.70;78.30;;;;;;4157194;28;20041;-62
2021/05/23 10:09:47;;;;;;;2.25;0.80;;;22.70;78.70;;;;;;4156552;28;20045;-68
2021/05/23 10:11:49;;;;;;;1.25;0.90;;;22.60;79.00;;;;;;4157349;28;20025;-67
2021/05/23 10:13:50;;;;;;;3.30;0.85;;;22.50;78.90;;;;;;4156397;28;20064;-67
2021/05/23 10:15:52;;;;;;;1.65;0.52;;;22.40;78.60;;;;;;4157491;28;20053;-68
2021/05/23 10:17:54;;;;;;;1.30;0.50;;;22.40;78.80;;;;;;4155857;28;20045;-64
2021/05/23 10:19:56;;;;;;;1.23;0.50;;;22.50;78.10;;;;;;4157151;28;20037;-65
2021/05/23 10:22:00;;;;;;;2.20;0.70;;;22.50;78.40;;;;;;4156168;28;20029;-65
2021/05/23 10:24:03;;;;;;;1.40;0.60;;;22.50;78.30;;;;;;4156723;28;20083;-61
2021/05/23 10:26:12;;;;;;;1.10;0.52;;;22.60;78.60;;;;;;4156430;28;20192;-62
2021/05/23 10:28:14;;;;;;;2.60;1.08;;;22.70;77.50;;;;;;4156723;28;20124;-64
2021/05/23 10:30:16;;;;;;;3.92;1.38;;;22.70;78.20;;;;;;4156036;28;20080;-63
2021/05/23 10:32:20;;;;;;;4.88;0.70;;;22.80;78.00;;;;;;4156423;28;20144;-62
2021/05/23 10:34:35;;;;;;;2.88;0.73;;;22.90;78.20;;;;;;4156504;28;20038;-62
2021/05/23 10:36:38;;;;;;;5.97;0.68;;;23.00;76.60;;;;;;4156716;28;20087;-63